sensor_id;sensor_type;location;lat;lon;timestamp;pressure;altitude;pressure_sealevel;temperature;humidity
47522;BME280;32291;52.010;4.446;2023-07-29T00:00:08;77088.78;;;-144.67;100.00
47522;BME280;32291;52.010;4.446;2023-07-29T00:01:11;77082.38;;;-144.67;100.00
47522;BME280;32291;52.010;4.446;2023-07-29T00:02:14;77084.50;;;-144.67;100.00
47522;BME280;32291;52.010;4.446;2023-07-29T00:03:21;77101.63;;;-144.67;100.00
47522;BME280;32291;52.010;4.446;2023-07-29T00:04:23;77090.94;;;-144.67;100.00
47522;BME280;32291;52.010;4.446;2023-07-29T00:05:25;77097.34;;;-144.67;100.00
47522;BME280;32291;52.010;4.446;2023-07-29T00:06:27;77093.06;;;-144.67;100.00
47522;BME280;32291;52.010;4.446;2023-07-29T00:07:29;77093.06;;;-144.67;100.00
47522;BME280;32291;52.010;4.446;2023-07-29T00:08:36;77097.34;;;-144.67;100.00
47522;BME280;32291;52.010;4.446;2023-07-29T00:09:43;77114.47;;;-144.67;100.00
47522;BME280;32291;52.010;4.446;2023-07-29T00:10:45;77110.19;;;-144.67;100.00
47522;BME280;32291;52.010;4.446;2023-07-29T00:11:47;77114.47;;;-144.67;100.00
47522;BME280;32291;52.010;4.446;2023-07-29T00:12:54;77108.06;;;-144.67;100.00
47522;BME280;32291;52.010;4.446;2023-07-29T00:14:02;77114.47;;;-144.67;100.00
47522;BME280;32291;52.010;4.446;2023-07-29T00:15:09;77116.63;;;-144.67;100.00
47522;BME280;32291;52.010;4.446;2023-07-29T00:16:17;77116.63;;;-144.67;100.00
47522;BME280;32291;52.010;4.446;2023-07-29T00:17:21;77120.91;;;-144.67;100.00
47522;BME280;32291;52.010;4.446;2023-07-29T00:18:23;77127.31;;;-144.67;100.00
47522;BME280;32291;52.010;4.446;2023-07-29T00:19:25;77120.91;;;-144.67;100.00
47522;BME280;32291;52.010;4.446;2023-07-29T00:20:32;77118.75;;;-144.67;100.00
47522;BME280;32291;52.010;4.446;2023-07-29T00:21:38;77123.03;;;-144.67;100.00
47522;BME280;32291;52.010;4.446;2023-07-29T00:22:41;77127.31;;;-144.67;100.00
47522;BME280;32291;52.010;4.446;2023-07-29T00:23:43;77123.03;;;-144.67;100.00
47522;BME280;32291;52.010;4.446;2023-07-29T00:24:53;77123.03;;;-144.67;100.00
47522;BME280;32291;52.010;4.446;2023-07-29T00:25:59;77131.59;;;-144.67;100.00
47522;BME280;32291;52.010;4.446;2023-07-29T00:27:01;77131.59;;;-144.67;100.00
47522;BME280;32291;52.010;4.446;2023-07-29T00:28:04;77131.59;;;-144.67;100.00
47522;BME280;32291;52.010;4.446;2023-07-29T00:29:10;77153.00;;;-144.67;100.00
47522;BME280;32291;52.010;4.446;2023-07-29T00:30:12;77150.84;;;-144.67;100.00
47522;BME280;32291;52.010;4.446;2023-07-29T00:31:20;77138.03;;;-144.67;100.00
47522;BME280;32291;52.010;4.446;2023-07-29T00:32:22;77144.44;;;-144.67;100.00
47522;BME280;32291;52.010;4.446;2023-07-29T00:33:29;77146.56;;;-144.67;100.00
47522;BME280;32291;52.010;4.446;2023-07-29T00:34:35;77144.44;;;-144.67;100.00
47522;BME280;32291;52.010;4.446;2023-07-29T00:35:42;77144.44;;;-144.67;100.00
47522;BME280;32291;52.010;4.446;2023-07-29T00:36:45;77148.72;;;-144.67;100.00
47522;BME280;32291;52.010;4.446;2023-07-29T00:37:52;77144.44;;;-144.67;100.00
47522;BME280;32291;52.010;4.446;2023-07-29T00:38:54;77142.28;;;-144.67;100.00
47522;BME280;32291;52.010;4.446;2023-07-29T00:40:14;77148.72;;;-144.67;100.00
47522;BME280;32291;52.010;4.446;2023-07-29T00:41:19;77146.56;;;-144.67;100.00
47522;BME280;32291;52.010;4.446;2023-07-29T00:42:28;77157.28;;;-144.67;100.00
47522;BME280;32291;52.010;4.446;2023-07-29T00:43:34;77161.56;;;-144.67;100.00
47522;BME280;32291;52.010;4.446;2023-07-29T00:44:41;77146.56;;;-144.67;100.00
47522;BME280;32291;52.010;4.446;2023-07-29T00:45:49;77157.28;;;-144.67;100.00
47522;BME280;32291;52.010;4.446;2023-07-29T00:46:55;77161.56;;;-144.67;100.00
47522;BME280;32291;52.010;4.446;2023-07-29T00:47:58;77161.56;;;-144.67;100.00
47522;BME280;32291;52.010;4.446;2023-07-29T00:49:05;77167.97;;;-144.67;100.00
47522;BME280;32291;52.010;4.446;2023-07-29T00:50:14;77165.84;;;-144.67;100.00
47522;BME280;32291;52.010;4.446;2023-07-29T00:51:22;77161.56;;;-144.67;100.00
47522;BME280;32291;52.010;4.446;2023-07-29T00:52:29;77155.13;;;-144.67;100.00
47522;BME280;32291;52.010;4.446;2023-07-29T00:53:31;77165.84;;;-144.67;100.00
47522;BME280;32291;52.010;4.446;2023-07-29T00:54:42;77157.28;;;-144.67;100.00
47522;BME280;32291;52.010;4.446;2023-07-29T00:55:44;77157.28;;;-144.67;100.00
47522;BME280;32291;52.010;4.446;2023-07-29T00:56:46;77159.41;;;-144.67;100.00
47522;BME280;32291;52.010;4.446;2023-07-29T00:57:48;77165.84;;;-144.67;100.00
47522;BME280;32291;52.010;4.446;2023-07-29T00:58:58;77155.13;;;-144.67;100.00
47522;BME280;32291;52.010;4.446;2023-07-29T01:00:12;77157.28;;;-144.67;100.00
47522;BME280;32291;52.010;4.446;2023-07-29T01:01:14;77159.41;;;-144.67;100.00
47522;BME280;32291;52.010;4.446;2023-07-29T01:02:22;77165.84;;;-144.67;100.00
47522;BME280;32291;52.010;4.446;2023-07-29T01:03:29;77170.13;;;-144.67;100.00
47522;BME280;32291;52.010;4.446;2023-07-29T01:04:36;77170.13;;;-144.67;100.00
47522;BME280;32291;52.010;4.446;2023-07-29T01:06:17;77157.28;;;-144.67;100.00
47522;BME280;32291;52.010;4.446;2023-07-29T01:08:55;77165.84;;;-144.67;100.00
47522;BME280;32291;52.010;4.446;2023-07-29T01:12:06;77157.28;;;-144.67;100.00
47522;BME280;32291;52.010;4.446;2023-07-29T01:13:26;77165.84;;;-144.67;100.00
47522;BME280;32291;52.010;4.446;2023-07-29T01:15:11;77157.28;;;-144.67;100.00
47522;BME280;32291;52.010;4.446;2023-07-29T01:16:36;77161.56;;;-144.67;100.00
47522;BME280;32291;52.010;4.446;2023-07-29T01:18:08;77157.28;;;-144.67;100.00
47522;BME280;32291;52.010;4.446;2023-07-29T01:19:42;77159.41;;;-144.67;100.00
47522;BME280;32291;52.010;4.446;2023-07-29T01:20:54;77148.72;;;-144.67;100.00
47522;BME280;32291;52.010;4.446;2023-07-29T01:22:04;77148.72;;;-144.67;100.00
47522;BME280;32291;52.010;4.446;2023-07-29T01:23:13;77148.72;;;-144.67;100.00
47522;BME280;32291;52.010;4.446;2023-07-29T01:24:15;77144.44;;;-144.67;100.00
47522;BME280;32291;52.010;4.446;2023-07-29T01:25:17;77150.84;;;-144.67;100.00
47522;BME280;32291;52.010;4.446;2023-07-29T01:26:24;77140.16;;;-144.67;100.00
47522;BME280;32291;52.010;4.446;2023-07-29T01:27:27;77150.84;;;-144.67;100.00
47522;BME280;32291;52.010;4.446;2023-07-29T01:28:33;77148.72;;;-144.67;100.00
47522;BME280;32291;52.010;4.446;2023-07-29T01:29:40;77157.28;;;-144.67;100.00
47522;BME280;32291;52.010;4.446;2023-07-29T01:30:44;77159.41;;;-144.67;100.00
47522;BME280;32291;52.010;4.446;2023-07-29T01:31:56;77159.41;;;-144.67;100.00
47522;BME280;32291;52.010;4.446;2023-07-29T01:33:18;77159.41;;;-144.67;100.00
47522;BME280;32291;52.010;4.446;2023-07-29T01:34:34;77157.28;;;-144.67;100.00
47522;BME280;32291;52.010;4.446;2023-07-29T01:36:07;77148.72;;;-144.67;100.00
47522;BME280;32291;52.010;4.446;2023-07-29T01:37:24;77142.28;;;-144.67;100.00
47522;BME280;32291;52.010;4.446;2023-07-29T01:38:40;77148.72;;;-144.67;100.00
47522;BME280;32291;52.010;4.446;2023-07-29T01:39:50;77144.44;;;-144.67;100.00
47522;BME280;32291;52.010;4.446;2023-07-29T01:41:01;77135.88;;;-144.67;100.00
47522;BME280;32291;52.010;4.446;2023-07-29T01:42:04;77135.88;;;-144.67;100.00
47522;BME280;32291;52.010;4.446;2023-07-29T01:43:12;77144.44;;;-144.67;100.00
47522;BME280;32291;52.010;4.446;2023-07-29T01:44:15;77135.88;;;-144.67;100.00
47522;BME280;32291;52.010;4.446;2023-07-29T01:45:24;77144.44;;;-144.67;100.00
47522;BME280;32291;52.010;4.446;2023-07-29T01:46:34;77148.72;;;-144.67;100.00
47522;BME280;32291;52.010;4.446;2023-07-29T01:47:41;77157.28;;;-144.67;100.00
47522;BME280;32291;52.010;4.446;2023-07-29T01:48:43;77153.00;;;-144.67;100.00
47522;BME280;32291;52.010;4.446;2023-07-29T01:49:50;77153.00;;;-144.67;100.00
47522;BME280;32291;52.010;4.446;2023-07-29T01:50:57;77157.28;;;-144.67;100.00
47522;BME280;32291;52.010;4.446;2023-07-29T01:52:04;77153.00;;;-144.67;100.00
47522;BME280;32291;52.010;4.446;2023-07-29T01:53:10;77157.28;;;-144.67;100.00
47522;BME280;32291;52.010;4.446;2023-07-29T01:54:17;77161.56;;;-144.67;100.00
47522;BME280;32291;52.010;4.446;2023-07-29T01:55:19;77161.56;;;-144.67;100.00
47522;BME280;32291;52.010;4.446;2023-07-29T01:56:26;77161.56;;;-144.67;100.00
47522;BME280;32291;52.010;4.446;2023-07-29T01:57:33;77161.56;;;-144.67;100.00
47522;BME280;32291;52.010;4.446;2023-07-29T01:58:35;77161.56;;;-144.67;100.00
47522;BME280;32291;52.010;4.446;2023-07-29T01:59:37;77161.56;;;-144.67;100.00
47522;BME280;32291;52.010;4.446;2023-07-29T02:00:44;77150.84;;;-144.67;100.00
47522;BME280;32291;52.010;4.446;2023-07-29T02:01:50;77153.00;;;-144.67;100.00
47522;BME280;32291;52.010;4.446;2023-07-29T02:02:57;77155.13;;;-144.67;100.00
47522;BME280;32291;52.010;4.446;2023-07-29T02:04:04;77157.28;;;-144.67;100.00
47522;BME280;32291;52.010;4.446;2023-07-29T02:05:11;77157.28;;;-144.67;100.00
47522;BME280;32291;52.010;4.446;2023-07-29T02:06:17;77161.56;;;-144.67;100.00
47522;BME280;32291;52.010;4.446;2023-07-29T02:07:24;77155.13;;;-144.67;100.00
47522;BME280;32291;52.010;4.446;2023-07-29T02:08:33;77157.28;;;-144.67;100.00
47522;BME280;32291;52.010;4.446;2023-07-29T02:09:35;77157.28;;;-144.67;100.00
47522;BME280;32291;52.010;4.446;2023-07-29T02:10:41;77170.13;;;-144.67;100.00
47522;BME280;32291;52.010;4.446;2023-07-29T02:11:51;77165.84;;;-144.67;100.00
47522;BME280;32291;52.010;4.446;2023-07-29T02:12:58;77157.28;;;-144.67;100.00
47522;BME280;32291;52.010;4.446;2023-07-29T02:14:05;77157.28;;;-144.67;100.00
47522;BME280;32291;52.010;4.446;2023-07-29T02:15:12;77163.69;;;-144.67;100.00
47522;BME280;32291;52.010;4.446;2023-07-29T02:16:18;77163.69;;;-144.67;100.00
47522;BME280;32291;52.010;4.446;2023-07-29T02:17:25;77159.41;;;-144.67;100.00
47522;BME280;32291;52.010;4.446;2023-07-29T02:18:32;77159.41;;;-144.67;100.00
47522;BME280;32291;52.010;4.446;2023-07-29T02:19:39;77159.41;;;-144.67;100.00
47522;BME280;32291;52.010;4.446;2023-07-29T02:20:41;77170.13;;;-144.67;100.00
47522;BME280;32291;52.010;4.446;2023-07-29T02:21:55;77167.97;;;-144.67;100.00
47522;BME280;32291;52.010;4.446;2023-07-29T02:23:02;77159.41;;;-144.67;100.00
47522;BME280;32291;52.010;4.446;2023-07-29T02:24:04;77167.97;;;-144.67;100.00
47522;BME280;32291;52.010;4.446;2023-07-29T02:25:06;77159.41;;;-144.67;100.00
47522;BME280;32291;52.010;4.446;2023-07-29T02:26:09;77161.56;;;-144.67;100.00
47522;BME280;32291;52.010;4.446;2023-07-29T02:27:16;77172.25;;;-144.67;100.00
47522;BME280;32291;52.010;4.446;2023-07-29T02:28:22;77161.56;;;-144.67;100.00
47522;BME280;32291;52.010;4.446;2023-07-29T02:29:24;77170.13;;;-144.67;100.00
47522;BME280;32291;52.010;4.446;2023-07-29T02:30:31;77170.13;;;-144.67;100.00
47522;BME280;32291;52.010;4.446;2023-07-29T02:31:38;77170.13;;;-144.67;100.00
47522;BME280;32291;52.010;4.446;2023-07-29T02:32:40;77161.56;;;-144.67;100.00
47522;BME280;32291;52.010;4.446;2023-07-29T02:33:43;77161.56;;;-144.67;100.00
47522;BME280;32291;52.010;4.446;2023-07-29T02:34:50;77172.25;;;-144.67;100.00
47522;BME280;32291;52.010;4.446;2023-07-29T02:35:57;77165.84;;;-144.67;100.00
47522;BME280;32291;52.010;4.446;2023-07-29T02:37:03;77163.69;;;-144.67;100.00
47522;BME280;32291;52.010;4.446;2023-07-29T02:38:11;77159.41;;;-144.67;100.00
47522;BME280;32291;52.010;4.446;2023-07-29T02:39:18;77159.41;;;-144.67;100.00
47522;BME280;32291;52.010;4.446;2023-07-29T02:40:24;77157.28;;;-144.67;100.00
47522;BME280;32291;52.010;4.446;2023-07-29T02:41:33;77159.41;;;-144.67;100.00
47522;BME280;32291;52.010;4.446;2023-07-29T02:42:40;77150.84;;;-144.67;100.00
47522;BME280;32291;52.010;4.446;2023-07-29T02:43:50;77153.00;;;-144.67;100.00
47522;BME280;32291;52.010;4.446;2023-07-29T02:44:57;77155.13;;;-144.67;100.00
47522;BME280;32291;52.010;4.446;2023-07-29T02:46:05;77153.00;;;-144.67;100.00
47522;BME280;32291;52.010;4.446;2023-07-29T02:47:12;77157.28;;;-144.67;100.00
47522;BME280;32291;52.010;4.446;2023-07-29T02:48:19;77165.84;;;-144.67;100.00
47522;BME280;32291;52.010;4.446;2023-07-29T02:49:26;77165.84;;;-144.67;100.00
47522;BME280;32291;52.010;4.446;2023-07-29T02:50:34;77155.13;;;-144.67;100.00
47522;BME280;32291;52.010;4.446;2023-07-29T02:51:41;77150.84;;;-144.67;100.00
47522;BME280;32291;52.010;4.446;2023-07-29T02:52:48;77157.28;;;-144.67;100.00
47522;BME280;32291;52.010;4.446;2023-07-29T02:53:54;77165.84;;;-144.67;100.00
47522;BME280;32291;52.010;4.446;2023-07-29T02:55:01;77161.56;;;-144.67;100.00
47522;BME280;32291;52.010;4.446;2023-07-29T02:56:04;77161.56;;;-144.67;100.00
47522;BME280;32291;52.010;4.446;2023-07-29T02:57:13;77170.13;;;-144.67;100.00
47522;BME280;32291;52.010;4.446;2023-07-29T02:58:20;77153.00;;;-144.67;100.00
47522;BME280;32291;52.010;4.446;2023-07-29T02:59:27;77144.44;;;-144.67;100.00
47522;BME280;32291;52.010;4.446;2023-07-29T03:00:34;77159.41;;;-144.67;100.00
47522;BME280;32291;52.010;4.446;2023-07-29T03:01:40;77148.72;;;-144.67;100.00
47522;BME280;32291;52.010;4.446;2023-07-29T03:02:47;77153.00;;;-144.67;100.00
47522;BME280;32291;52.010;4.446;2023-07-29T03:03:49;77157.28;;;-144.67;100.00
47522;BME280;32291;52.010;4.446;2023-07-29T03:04:56;77153.00;;;-144.67;100.00
47522;BME280;32291;52.010;4.446;2023-07-29T03:06:08;77157.28;;;-144.67;100.00
47522;BME280;32291;52.010;4.446;2023-07-29T03:07:11;77157.28;;;-144.67;100.00
47522;BME280;32291;52.010;4.446;2023-07-29T03:08:18;77161.56;;;-144.67;100.00
47522;BME280;32291;52.010;4.446;2023-07-29T03:09:25;77165.84;;;-144.67;100.00
47522;BME280;32291;52.010;4.446;2023-07-29T03:10:27;77167.97;;;-144.67;100.00
47522;BME280;32291;52.010;4.446;2023-07-29T03:11:34;77170.13;;;-144.67;100.00
47522;BME280;32291;52.010;4.446;2023-07-29T03:12:41;77170.13;;;-144.67;100.00
47522;BME280;32291;52.010;4.446;2023-07-29T03:13:48;77170.13;;;-144.67;100.00
47522;BME280;32291;52.010;4.446;2023-07-29T03:14:55;77165.84;;;-144.67;100.00
47522;BME280;32291;52.010;4.446;2023-07-29T03:16:12;77161.56;;;-144.67;100.00
47522;BME280;32291;52.010;4.446;2023-07-29T03:17:14;77161.56;;;-144.67;100.00
47522;BME280;32291;52.010;4.446;2023-07-29T03:18:21;77170.13;;;-144.67;100.00
47522;BME280;32291;52.010;4.446;2023-07-29T03:19:28;77163.69;;;-144.67;100.00
47522;BME280;32291;52.010;4.446;2023-07-29T03:20:35;77148.72;;;-144.67;100.00
47522;BME280;32291;52.010;4.446;2023-07-29T03:21:42;77148.72;;;-144.67;100.00
47522;BME280;32291;52.010;4.446;2023-07-29T03:22:49;77157.28;;;-144.67;100.00
47522;BME280;32291;52.010;4.446;2023-07-29T03:23:51;77153.00;;;-144.67;100.00
47522;BME280;32291;52.010;4.446;2023-07-29T03:24:58;77142.28;;;-144.67;100.00
47522;BME280;32291;52.010;4.446;2023-07-29T03:26:05;77138.03;;;-144.67;100.00
47522;BME280;32291;52.010;4.446;2023-07-29T03:27:16;77138.03;;;-144.67;100.00
47522;BME280;32291;52.010;4.446;2023-07-29T03:28:33;77135.88;;;-144.67;100.00
47522;BME280;32291;52.010;4.446;2023-07-29T03:29:40;77138.03;;;-144.67;100.00
47522;BME280;32291;52.010;4.446;2023-07-29T03:30:42;77135.88;;;-144.67;100.00
47522;BME280;32291;52.010;4.446;2023-07-29T03:31:49;77127.31;;;-144.67;100.00
47522;BME280;32291;52.010;4.446;2023-07-29T03:32:56;77131.59;;;-144.67;100.00
47522;BME280;32291;52.010;4.446;2023-07-29T03:33:58;77131.59;;;-144.67;100.00
47522;BME280;32291;52.010;4.446;2023-07-29T03:35:05;77125.19;;;-144.67;100.00
47522;BME280;32291;52.010;4.446;2023-07-29T03:36:12;77127.31;;;-144.67;100.00
47522;BME280;32291;52.010;4.446;2023-07-29T03:37:18;77127.31;;;-144.67;100.00
47522;BME280;32291;52.010;4.446;2023-07-29T03:38:22;77131.59;;;-144.67;100.00
47522;BME280;32291;52.010;4.446;2023-07-29T03:39:29;77131.59;;;-144.67;100.00
47522;BME280;32291;52.010;4.446;2023-07-29T03:40:36;77127.31;;;-144.67;100.00
47522;BME280;32291;52.010;4.446;2023-07-29T03:41:38;77127.31;;;-144.67;100.00
47522;BME280;32291;52.010;4.446;2023-07-29T03:42:45;77118.75;;;-144.67;100.00
47522;BME280;32291;52.010;4.446;2023-07-29T03:43:52;77131.59;;;-144.67;100.00
47522;BME280;32291;52.010;4.446;2023-07-29T03:44:54;77138.03;;;-144.67;100.00
47522;BME280;32291;52.010;4.446;2023-07-29T03:46:00;77135.88;;;-144.67;100.00
47522;BME280;32291;52.010;4.446;2023-07-29T03:47:07;77127.31;;;-144.67;100.00
47522;BME280;32291;52.010;4.446;2023-07-29T03:48:14;77133.72;;;-144.67;100.00
47522;BME280;32291;52.010;4.446;2023-07-29T03:49:21;77131.59;;;-144.67;100.00
47522;BME280;32291;52.010;4.446;2023-07-29T03:50:29;77125.19;;;-144.67;100.00
47522;BME280;32291;52.010;4.446;2023-07-29T03:51:36;77123.03;;;-144.67;100.00
47522;BME280;32291;52.010;4.446;2023-07-29T03:52:38;77114.47;;;-144.67;100.00
47522;BME280;32291;52.010;4.446;2023-07-29T03:53:45;77118.75;;;-144.67;100.00
47522;BME280;32291;52.010;4.446;2023-07-29T03:54:51;77108.06;;;-144.67;100.00
47522;BME280;32291;52.010;4.446;2023-07-29T03:55:58;77114.47;;;-144.67;100.00
47522;BME280;32291;52.010;4.446;2023-07-29T03:57:05;77116.63;;;-144.67;100.00
47522;BME280;32291;52.010;4.446;2023-07-29T03:58:12;77116.63;;;-144.67;100.00
47522;BME280;32291;52.010;4.446;2023-07-29T03:59:19;77114.47;;;-144.67;100.00
47522;BME280;32291;52.010;4.446;2023-07-29T04:00:26;77116.63;;;-144.67;100.00
47522;BME280;32291;52.010;4.446;2023-07-29T04:01:29;77114.47;;;-144.67;100.00
47522;BME280;32291;52.010;4.446;2023-07-29T04:02:36;77114.47;;;-144.67;100.00
47522;BME280;32291;52.010;4.446;2023-07-29T04:03:46;77114.47;;;-144.67;100.00
47522;BME280;32291;52.010;4.446;2023-07-29T04:04:53;77114.47;;;-144.67;100.00
47522;BME280;32291;52.010;4.446;2023-07-29T04:05:59;77097.34;;;-144.67;100.00
47522;BME280;32291;52.010;4.446;2023-07-29T04:07:06;77112.34;;;-144.67;100.00
47522;BME280;32291;52.010;4.446;2023-07-29T04:08:13;77101.63;;;-144.67;100.00
47522;BME280;32291;52.010;4.446;2023-07-29T04:09:20;77112.34;;;-144.67;100.00
47522;BME280;32291;52.010;4.446;2023-07-29T04:10:27;77097.34;;;-144.67;100.00
47522;BME280;32291;52.010;4.446;2023-07-29T04:11:34;77110.19;;;-144.67;100.00
47522;BME280;32291;52.010;4.446;2023-07-29T04:12:41;77103.78;;;-144.67;100.00
47522;BME280;32291;52.010;4.446;2023-07-29T04:13:48;77105.91;;;-144.67;100.00
47522;BME280;32291;52.010;4.446;2023-07-29T04:14:50;77103.78;;;-144.67;100.00
47522;BME280;32291;52.010;4.446;2023-07-29T04:15:52;77118.75;;;-144.67;100.00
47522;BME280;32291;52.010;4.446;2023-07-29T04:16:54;77127.31;;;-144.67;100.00
47522;BME280;32291;52.010;4.446;2023-07-29T04:17:56;77125.19;;;-144.67;100.00
47522;BME280;32291;52.010;4.446;2023-07-29T04:19:03;77123.03;;;-144.67;100.00
47522;BME280;32291;52.010;4.446;2023-07-29T04:20:10;77127.31;;;-144.67;100.00
47522;BME280;32291;52.010;4.446;2023-07-29T04:21:13;77131.59;;;-144.67;100.00
47522;BME280;32291;52.010;4.446;2023-07-29T04:22:19;77138.03;;;-144.67;100.00
47522;BME280;32291;52.010;4.446;2023-07-29T04:23:26;77131.59;;;-144.67;100.00
47522;BME280;32291;52.010;4.446;2023-07-29T04:24:33;77129.47;;;-144.67;100.00
47522;BME280;32291;52.010;4.446;2023-07-29T04:25:35;77129.47;;;-144.67;100.00
47522;BME280;32291;52.010;4.446;2023-07-29T04:26:42;77127.31;;;-144.67;100.00
47522;BME280;32291;52.010;4.446;2023-07-29T04:27:49;77131.59;;;-144.67;100.00
47522;BME280;32291;52.010;4.446;2023-07-29T04:28:56;77129.47;;;-144.67;100.00
47522;BME280;32291;52.010;4.446;2023-07-29T04:30:03;77131.59;;;-144.67;100.00
47522;BME280;32291;52.010;4.446;2023-07-29T04:31:10;77118.75;;;-144.67;100.00
47522;BME280;32291;52.010;4.446;2023-07-29T04:32:12;77127.31;;;-144.67;100.00
47522;BME280;32291;52.010;4.446;2023-07-29T04:33:18;77120.91;;;-144.67;100.00
47522;BME280;32291;52.010;4.446;2023-07-29T04:34:25;77114.47;;;-144.67;100.00
47522;BME280;32291;52.010;4.446;2023-07-29T04:35:32;77114.47;;;-144.67;100.00
47522;BME280;32291;52.010;4.446;2023-07-29T04:36:39;77116.63;;;-144.67;100.00
47522;BME280;32291;52.010;4.446;2023-07-29T04:37:46;77114.47;;;-144.67;100.00
47522;BME280;32291;52.010;4.446;2023-07-29T04:38:54;77125.19;;;-144.67;100.00
47522;BME280;32291;52.010;4.446;2023-07-29T04:40:02;77123.03;;;-144.67;100.00
47522;BME280;32291;52.010;4.446;2023-07-29T04:41:09;77125.19;;;-144.67;100.00
47522;BME280;32291;52.010;4.446;2023-07-29T04:42:15;77133.72;;;-144.67;100.00
47522;BME280;32291;52.010;4.446;2023-07-29T04:43:22;77144.44;;;-144.67;100.00
47522;BME280;32291;52.010;4.446;2023-07-29T04:44:29;77127.31;;;-144.67;100.00
47522;BME280;32291;52.010;4.446;2023-07-29T04:45:43;77140.16;;;-144.67;100.00
47522;BME280;32291;52.010;4.446;2023-07-29T04:46:45;77140.16;;;-144.67;100.00
47522;BME280;32291;52.010;4.446;2023-07-29T04:47:48;77153.00;;;-144.67;100.00
47522;BME280;32291;52.010;4.446;2023-07-29T04:48:55;77144.44;;;-144.67;100.00
47522;BME280;32291;52.010;4.446;2023-07-29T04:50:01;77140.16;;;-144.67;100.00
47522;BME280;32291;52.010;4.446;2023-07-29T04:51:08;77144.44;;;-144.67;100.00
47522;BME280;32291;52.010;4.446;2023-07-29T04:52:15;77153.00;;;-144.67;100.00
47522;BME280;32291;52.010;4.446;2023-07-29T04:53:22;77150.84;;;-144.67;100.00
47522;BME280;32291;52.010;4.446;2023-07-29T04:54:28;77140.16;;;-144.67;100.00
47522;BME280;32291;52.010;4.446;2023-07-29T04:55:35;77127.31;;;-144.67;100.00
47522;BME280;32291;52.010;4.446;2023-07-29T04:56:42;77127.31;;;-144.67;100.00
47522;BME280;32291;52.010;4.446;2023-07-29T04:57:49;77123.03;;;-144.67;100.00
47522;BME280;32291;52.010;4.446;2023-07-29T04:58:51;77118.75;;;-144.67;100.00
47522;BME280;32291;52.010;4.446;2023-07-29T04:59:58;77114.47;;;-144.67;100.00
47522;BME280;32291;52.010;4.446;2023-07-29T05:01:02;77112.34;;;-144.67;100.00
47522;BME280;32291;52.010;4.446;2023-07-29T05:02:09;77123.03;;;-144.67;100.00
47522;BME280;32291;52.010;4.446;2023-07-29T05:03:16;77114.47;;;-144.67;100.00
47522;BME280;32291;52.010;4.446;2023-07-29T05:04:24;77116.63;;;-144.67;100.00
47522;BME280;32291;52.010;4.446;2023-07-29T05:05:30;77125.19;;;-144.67;100.00
47522;BME280;32291;52.010;4.446;2023-07-29T05:06:37;77114.47;;;-144.67;100.00
47522;BME280;32291;52.010;4.446;2023-07-29T05:07:39;77123.03;;;-144.67;100.00
47522;BME280;32291;52.010;4.446;2023-07-29T05:08:41;77116.63;;;-144.67;100.00
47522;BME280;32291;52.010;4.446;2023-07-29T05:09:44;77114.47;;;-144.67;100.00
47522;BME280;32291;52.010;4.446;2023-07-29T05:10:51;77112.34;;;-144.67;100.00
47522;BME280;32291;52.010;4.446;2023-07-29T05:11:59;77112.34;;;-144.67;100.00
47522;BME280;32291;52.010;4.446;2023-07-29T05:13:01;77101.63;;;-144.67;100.00
47522;BME280;32291;52.010;4.446;2023-07-29T05:14:07;77108.06;;;-144.67;100.00
47522;BME280;32291;52.010;4.446;2023-07-29T05:15:16;77097.34;;;-144.67;100.00
47522;BME280;32291;52.010;4.446;2023-07-29T05:16:18;77090.94;;;-144.67;100.00
47522;BME280;32291;52.010;4.446;2023-07-29T05:17:25;77088.78;;;-144.67;100.00
47522;BME280;32291;52.010;4.446;2023-07-29T05:18:32;77093.06;;;-144.67;100.00
47522;BME280;32291;52.010;4.446;2023-07-29T05:19:39;77093.06;;;-144.67;100.00
47522;BME280;32291;52.010;4.446;2023-07-29T05:20:41;77088.78;;;-144.67;100.00
47522;BME280;32291;52.010;4.446;2023-07-29T05:21:43;77082.38;;;-144.67;100.00
47522;BME280;32291;52.010;4.446;2023-07-29T05:22:45;77080.22;;;-144.67;100.00
47522;BME280;32291;52.010;4.446;2023-07-29T05:23:52;77078.09;;;-144.67;100.00
47522;BME280;32291;52.010;4.446;2023-07-29T05:24:54;77084.50;;;-144.67;100.00
47522;BME280;32291;52.010;4.446;2023-07-29T05:25:56;77080.22;;;-144.67;100.00
47522;BME280;32291;52.010;4.446;2023-07-29T05:27:04;77080.22;;;-144.67;100.00
47522;BME280;32291;52.010;4.446;2023-07-29T05:28:10;77084.50;;;-144.67;100.00
47522;BME280;32291;52.010;4.446;2023-07-29T05:29:17;77075.94;;;-144.67;100.00
47522;BME280;32291;52.010;4.446;2023-07-29T05:30:19;77075.94;;;-144.67;100.00
47522;BME280;32291;52.010;4.446;2023-07-29T05:31:26;77069.53;;;-144.67;100.00
47522;BME280;32291;52.010;4.446;2023-07-29T05:32:28;77071.66;;;-144.67;100.00
47522;BME280;32291;52.010;4.446;2023-07-29T05:33:36;77060.97;;;-144.67;100.00
47522;BME280;32291;52.010;4.446;2023-07-29T05:34:42;77067.38;;;-144.67;100.00
47522;BME280;32291;52.010;4.446;2023-07-29T05:35:49;77067.38;;;-144.67;100.00
47522;BME280;32291;52.010;4.446;2023-07-29T05:36:51;77063.09;;;-144.67;100.00
47522;BME280;32291;52.010;4.446;2023-07-29T05:37:58;77056.69;;;-144.67;100.00
47522;BME280;32291;52.010;4.446;2023-07-29T05:39:05;77054.56;;;-144.67;100.00
47522;BME280;32291;52.010;4.446;2023-07-29T05:40:08;77054.56;;;-144.67;100.00
47522;BME280;32291;52.010;4.446;2023-07-29T05:41:15;77054.56;;;-144.67;100.00
47522;BME280;32291;52.010;4.446;2023-07-29T05:42:22;77050.25;;;-144.67;100.00
47522;BME280;32291;52.010;4.446;2023-07-29T05:43:29;77056.69;;;-144.67;100.00